Time;durP1;ratioP1;P1;durP2;ratioP2;P2;SDS_P1;SDS_P2;PMS_P1;PMS_P2;Temp;Humidity;BMP_temperature;BMP_pressure;BME280_temperature;BME280_humidity;BME280_pressure;Samples;Min_cycle;Max_cycle;Signal;HPM_P1;HPM_P2
2021/01/08 00:00:48;;;;;;;34.97;20.17;;;;;;;0.57;82.92;98661.38;119095;1150;65117;-80
2021/01/08 00:03:14;;;;;;;31.70;19.67;;;;;;;0.56;82.94;98668.40;119111;1151;65197;-80
2021/01/08 00:05:40;;;;;;;28.40;17.60;;;;;;;0.54;83.35;98664.96;119261;1150;65102;-80
2021/01/08 00:08:07;;;;;;;28.30;17.90;;;;;;;0.56;82.99;98662.30;119086;1150;65114;-80
2021/01/08 00:10:34;;;;;;;28.75;17.05;;;;;;;0.57;82.85;98664.86;119323;1151;65204;-80
2021/01/08 00:13:00;;;;;;;28.50;17.80;;;;;;;0.58;83.14;98658.73;119320;1151;65130;-80
2021/01/08 00:15:27;;;;;;;35.95;19.10;;;;;;;0.59;82.82;98664.83;119208;1150;65116;-79
2021/01/08 00:17:53;;;;;;;32.63;19.63;;;;;;;0.59;83.31;98675.31;118788;1150;65134;-80
2021/01/08 00:20:20;;;;;;;31.57;19.70;;;;;;;0.59;82.92;98672.69;118718;1149;65127;-80
2021/01/08 00:22:46;;;;;;;32.60;19.03;;;;;;;0.61;83.13;98671.73;118683;1151;65272;-80
2021/01/08 00:25:13;;;;;;;29.73;19.50;;;;;;;0.61;82.81;98663.02;119303;1150;65099;-79
2021/01/08 00:27:39;;;;;;;31.37;18.67;;;;;;;0.62;83.06;98670.81;119272;1151;65101;-80
2021/01/08 00:30:07;;;;;;;31.25;18.05;;;;;;;0.64;82.97;98668.16;118723;1150;65493;-79
2021/01/08 00:32:33;;;;;;;32.13;18.80;;;;;;;0.64;82.62;98673.41;118729;1150;65637;-80
2021/01/08 00:35:00;;;;;;;27.50;17.35;;;;;;;0.62;82.70;98676.06;118767;1150;65139;-80
2021/01/08 00:37:27;;;;;;;31.60;18.85;;;;;;;0.62;82.98;98673.44;119292;1150;65227;-80
2021/01/08 00:39:53;;;;;;;31.30;18.00;;;;;;;0.62;82.89;98672.59;119255;1150;65060;-80
2021/01/08 00:42:19;;;;;;;37.30;21.40;;;;;;;0.63;83.01;98669.92;119200;1151;65223;-80
2021/01/08 00:44:46;;;;;;;32.73;20.10;;;;;;;0.63;82.48;98674.29;119047;1150;65150;-80
2021/01/08 00:47:12;;;;;;;34.10;21.17;;;;;;;0.61;82.88;98676.13;118715;1151;65243;-80
2021/01/08 00:49:39;;;;;;;31.93;19.50;;;;;;;0.62;82.86;98670.81;118889;1151;65213;-81
2021/01/08 00:52:05;;;;;;;31.27;19.87;;;;;;;0.61;83.04;98676.13;119224;1150;65203;-80
2021/01/08 00:54:31;;;;;;;33.37;19.90;;;;;;;0.63;82.97;98659.44;119179;1151;65125;-80
2021/01/08 00:56:58;;;;;;;24.95;16.25;;;;;;;0.64;83.27;98668.16;118646;1151;65121;-80
2021/01/08 00:59:24;;;;;;;26.57;16.67;;;;;;;0.63;83.09;98666.42;119116;1150;65113;-80
2021/01/08 01:01:51;;;;;;;28.90;18.70;;;;;;;0.63;82.91;98666.42;118875;1150;65191;-81
2021/01/08 01:04:17;;;;;;;33.03;19.97;;;;;;;0.64;82.62;98663.77;119169;1151;65137;-81
2021/01/08 01:06:44;;;;;;;32.43;20.60;;;;;;;0.64;82.95;98662.91;118764;1151;65130;-81
2021/01/08 01:09:10;;;;;;;31.93;19.83;;;;;;;0.64;82.73;98663.77;118572;1150;65220;-80
2021/01/08 01:11:39;;;;;;;29.27;18.87;;;;;;;0.64;82.92;98662.91;118516;1151;65291;-80
2021/01/08 01:14:06;;;;;;;26.17;16.67;;;;;;;0.64;82.95;98657.67;118808;1150;65129;-80
2021/01/08 01:16:32;;;;;;;26.83;16.40;;;;;;;0.67;82.56;98659.34;118693;1151;65129;-80
2021/01/08 01:18:59;;;;;;;28.23;16.43;;;;;;;0.67;82.31;98662.80;118597;1151;65132;-80
2021/01/08 01:21:27;;;;;;;22.60;16.00;;;;;;;0.63;82.70;98659.44;119045;1151;65143;-80
2021/01/08 01:23:57;;;;;;;23.63;16.03;;;;;;;0.70;82.98;98659.23;119032;1150;65136;-80
2021/01/08 01:26:23;;;;;;;26.65;17.15;;;;;;;0.69;82.41;98657.53;119284;1151;65123;-82
2021/01/08 01:28:50;;;;;;;27.87;17.77;;;;;;;0.67;82.46;98652.31;118931;1150;65138;-82
2021/01/08 01:31:17;;;;;;;31.20;19.63;;;;;;;0.69;83.01;98657.53;119107;1151;65123;-79
2021/01/08 01:33:43;;;;;;;32.37;19.43;;;;;;;0.64;82.66;98658.52;119331;1150;65102;-80
2021/01/08 01:36:10;;;;;;;34.07;21.07;;;;;;;0.65;82.57;98660.22;119299;1150;65193;-79
2021/01/08 01:38:37;;;;;;;34.20;19.67;;;;;;;0.68;82.62;98658.41;119329;1150;65153;-80
2021/01/08 01:41:05;;;;;;;36.63;20.13;;;;;;;0.71;83.12;98656.57;119309;1150;65128;-80
2021/01/08 01:43:33;;;;;;;28.93;18.87;;;;;;;0.72;83.15;98654.80;119381;1151;65050;-80
2021/01/08 01:46:02;;;;;;;32.17;19.43;;;;;;;0.70;82.93;98654.84;119368;1150;65127;-80
2021/01/08 01:48:29;;;;;;;33.10;18.30;;;;;;;0.65;82.06;98648.88;119064;1151;65082;-80
2021/01/08 01:50:56;;;;;;;25.10;15.90;;;;;;;0.64;81.90;98652.42;119312;1151;65123;-80
2021/01/08 01:53:23;;;;;;;26.73;16.07;;;;;;;0.64;82.54;98652.42;119069;1151;65163;-80
2021/01/08 01:55:50;;;;;;;24.37;15.33;;;;;;;0.65;82.25;98651.50;119342;1151;65124;-79
2021/01/08 01:58:17;;;;;;;24.70;16.03;;;;;;;0.65;81.79;98652.35;119344;1150;65132;-81
2021/01/08 02:00:43;;;;;;;25.67;16.07;;;;;;;0.64;82.14;98641.94;119092;1151;65615;-81
2021/01/08 02:03:32;;;;;;;27.67;16.67;;;;;;;0.63;82.29;98642.82;118882;1150;65163;-81
2021/01/08 02:06:05;;;;;;;24.93;14.40;;;;;;;0.62;82.27;98636.73;119186;1151;65607;-80
2021/01/08 02:08:32;;;;;;;26.80;16.27;;;;;;;0.61;81.44;98642.04;119320;1150;65150;-81
2021/01/08 02:11:08;;;;;;;27.77;17.37;;;;;;;0.63;81.95;98640.20;119297;1151;65169;-80
2021/01/08 02:13:37;;;;;;;29.97;17.50;;;;;;;0.67;82.22;98643.60;119309;1150;65262;-80
2021/01/08 02:16:05;;;;;;;28.83;17.65;;;;;;;0.66;81.54;98640.12;118879;1150;65124;-80
2021/01/08 02:18:33;;;;;;;30.33;18.67;;;;;;;0.69;81.44;98636.55;118832;1150;65035;-80
2021/01/08 02:21:04;;;;;;;28.05;15.50;;;;;;;0.68;81.63;98629.56;119272;1151;65210;-80
2021/01/08 02:23:59;;;;;;;26.07;16.10;;;;;;;0.68;81.48;98633.05;118907;1151;65124;-80
2021/01/08 02:26:26;;;;;;;30.70;16.80;;;;;;;0.68;81.77;98634.81;119292;1151;65146;-80
2021/01/08 02:28:53;;;;;;;26.37;16.47;;;;;;;0.69;81.73;98637.40;119081;1151;65185;-80
2021/01/08 02:31:20;;;;;;;23.53;14.23;;;;;;;0.71;81.45;98638.22;119321;1151;65166;-81
2021/01/08 02:33:48;;;;;;;28.95;16.60;;;;;;;0.71;81.67;98627.72;119022;1151;65189;-80
2021/01/08 02:36:15;;;;;;;31.77;17.17;;;;;;;0.75;81.54;98631.94;119302;1151;65146;-80
2021/01/08 02:38:42;;;;;;;30.97;18.00;;;;;;;0.77;81.19;98624.03;119324;1151;65140;-80
2021/01/08 02:41:09;;;;;;;30.50;17.33;;;;;;;0.78;81.31;98625.73;119303;1150;65223;-81
2021/01/08 02:43:38;;;;;;;26.23;15.50;;;;;;;0.76;81.40;98627.55;119326;1150;65123;-80
2021/01/08 02:46:05;;;;;;;35.97;20.97;;;;;;;0.75;81.37;98624.07;119287;1150;65570;-80
2021/01/08 02:48:31;;;;;;;28.00;16.65;;;;;;;0.75;81.30;98633.71;119096;1151;65193;-80
2021/01/08 02:50:58;;;;;;;29.27;18.70;;;;;;;0.75;81.71;98626.70;118729;1151;65235;-80
2021/01/08 02:53:29;;;;;;;27.10;17.73;;;;;;;0.76;81.38;98620.53;118723;1151;65149;-80
2021/01/08 02:56:08;;;;;;;34.20;20.67;;;;;;;0.77;81.02;98619.64;118849;1150;65118;-80
2021/01/08 02:58:36;;;;;;;36.25;20.00;;;;;;;0.80;81.05;98616.06;119319;1151;65143;-80
2021/01/08 03:01:04;;;;;;;35.70;19.93;;;;;;;0.80;81.50;98629.17;119261;1150;65111;-80
2021/01/08 03:03:30;;;;;;;40.47;21.47;;;;;;;0.81;81.52;98617.77;118751;1151;65060;-80
2021/01/08 03:05:59;;;;;;;45.27;24.03;;;;;;;0.83;81.02;98623.82;119122;1151;65165;-82
2021/01/08 03:08:28;;;;;;;43.23;24.00;;;;;;;0.84;81.49;98621.16;118691;1150;65159;-80
2021/01/08 03:10:56;;;;;;;48.70;25.80;;;;;;;0.85;81.28;98622.86;118778;1150;65114;-80
2021/01/08 03:13:23;;;;;;;53.07;27.80;;;;;;;0.85;80.92;98624.63;119229;1150;65162;-80
2021/01/08 03:15:50;;;;;;;40.57;22.00;;;;;;;0.83;80.96;98622.05;118727;1150;65129;-80
2021/01/08 03:18:16;;;;;;;36.75;20.60;;;;;;;0.83;81.44;98624.67;118766;1150;65564;-80
2021/01/08 03:20:43;;;;;;;31.57;20.83;;;;;;;0.86;81.42;98626.33;118504;1151;65113;-80
2021/01/08 03:23:09;;;;;;;38.90;24.80;;;;;;;0.88;81.44;98628.00;118982;1151;65133;-80
2021/01/08 03:25:35;;;;;;;46.25;27.60;;;;;;;0.91;81.55;98629.66;119338;1150;65159;-80
2021/01/08 03:28:02;;;;;;;44.35;25.40;;;;;;;0.90;81.02;98633.20;119327;1150;65262;-81
2021/01/08 03:30:28;;;;;;;43.43;25.33;;;;;;;0.91;81.67;98634.91;119286;1151;65134;-81
2021/01/08 03:32:55;;;;;;;41.57;26.10;;;;;;;0.87;81.99;98631.55;119007;1150;65129;-81
2021/01/08 03:35:21;;;;;;;53.00;31.25;;;;;;;0.86;81.80;98632.44;118741;1150;65215;-81
2021/01/08 03:37:48;;;;;;;38.37;23.23;;;;;;;0.85;82.12;98637.75;118964;1150;65153;-81
2021/01/08 03:40:14;;;;;;;27.27;18.00;;;;;;;0.84;81.84;98633.39;118925;1150;65217;-81
2021/01/08 03:42:40;;;;;;;27.30;17.40;;;;;;;0.83;81.95;98629.92;118724;1151;65149;-79
2021/01/08 03:45:07;;;;;;;26.05;16.40;;;;;;;0.82;82.21;98632.61;119139;1150;65098;-81
2021/01/08 03:47:34;;;;;;;24.70;15.97;;;;;;;0.80;82.28;98635.27;118491;1151;65117;-81
2021/01/08 03:50:01;;;;;;;21.85;15.70;;;;;;;0.78;81.78;98630.98;119175;1150;65206;-81
2021/01/08 03:52:28;;;;;;;20.25;15.05;;;;;;;0.74;81.86;98625.00;119230;1151;65283;-80
2021/01/08 03:54:54;;;;;;;22.27;14.47;;;;;;;0.73;81.88;98628.50;119324;1150;65125;-80
2021/01/08 03:57:21;;;;;;;18.50;14.03;;;;;;;0.74;81.90;98630.23;119115;1151;65522;-80
2021/01/08 03:59:47;;;;;;;29.70;18.27;;;;;;;0.82;81.89;98632.61;119311;1150;65118;-81
2021/01/08 04:02:15;;;;;;;38.03;24.17;;;;;;;0.86;81.79;98634.20;119299;1150;65108;-80
2021/01/08 04:04:41;;;;;;;29.93;19.37;;;;;;;0.86;82.22;98640.30;119225;1151;65571;-80
2021/01/08 04:07:07;;;;;;;28.97;19.83;;;;;;;0.83;82.06;98632.54;118840;1150;65567;-80
2021/01/08 04:09:34;;;;;;;27.23;18.37;;;;;;;0.81;82.35;98634.34;119037;1151;65037;-80
2021/01/08 04:12:00;;;;;;;27.40;18.30;;;;;;;0.81;82.38;98630.88;118837;1149;65092;-80
2021/01/08 04:14:26;;;;;;;23.87;16.97;;;;;;;0.81;82.48;98629.10;119328;1150;65105;-80
2021/01/08 04:16:53;;;;;;;24.65;18.23;;;;;;;0.85;82.49;98627.26;119291;1149;65188;-80
2021/01/08 04:19:19;;;;;;;27.53;19.27;;;;;;;0.84;82.56;98636.89;119204;1151;65044;-80
2021/01/08 04:21:46;;;;;;;29.53;21.67;;;;;;;0.84;82.05;98631.65;119171;1150;65188;-80
2021/01/08 04:24:13;;;;;;;27.90;20.13;;;;;;;0.85;82.25;98635.13;118712;1151;65111;-80
2021/01/08 04:26:40;;;;;;;29.50;19.20;;;;;;;0.79;82.07;98635.31;118919;1151;65098;-80
2021/01/08 04:29:07;;;;;;;29.57;19.80;;;;;;;0.77;81.87;98630.13;119265;1151;65123;-80
2021/01/08 04:31:35;;;;;;;30.50;19.07;;;;;;;0.79;82.07;98630.06;119300;1151;65130;-80
2021/01/08 04:34:02;;;;;;;32.00;19.33;;;;;;;0.75;81.71;98629.31;119268;1151;65124;-80
2021/01/08 04:36:28;;;;;;;30.20;21.00;;;;;;;0.74;81.95;98626.73;118682;1150;65159;-81
2021/01/08 04:38:55;;;;;;;33.90;22.25;;;;;;;0.72;82.23;98636.44;118962;1150;65102;-80
2021/01/08 04:41:22;;;;;;;32.00;22.55;;;;;;;0.71;81.93;98632.08;118715;1151;65165;-80
2021/01/08 04:43:48;;;;;;;30.63;22.37;;;;;;;0.71;82.41;98634.70;118724;1151;65072;-80
2021/01/08 04:46:21;;;;;;;33.53;23.50;;;;;;;0.69;82.18;98639.17;118792;1151;65057;-79
2021/01/08 04:48:52;;;;;;;38.50;25.63;;;;;;;0.80;82.39;98637.04;119144;1151;65121;-80
2021/01/08 04:51:20;;;;;;;40.77;26.93;;;;;;;0.81;82.70;98639.59;119328;1151;65101;-80
2021/01/08 04:53:46;;;;;;;40.93;26.40;;;;;;;0.83;82.29;98639.55;119245;1151;65230;-80
2021/01/08 04:56:15;;;;;;;46.53;29.27;;;;;;;0.88;82.18;98632.39;119202;1151;65124;-80
2021/01/08 04:58:43;;;;;;;48.45;29.15;;;;;;;0.86;82.28;98631.58;119287;1150;65123;-80
2021/01/08 05:01:09;;;;;;;40.20;27.10;;;;;;;0.78;82.40;98633.61;119201;1150;65159;-79
2021/01/08 05:03:36;;;;;;;37.60;24.75;;;;;;;0.72;82.08;98632.05;118640;1151;65130;-80
2021/01/08 05:06:03;;;;;;;41.90;25.30;;;;;;;0.68;82.93;98633.05;119165;1150;65135;-80
2021/01/08 05:08:29;;;;;;;36.45;24.25;;;;;;;0.67;82.44;98620.85;119213;1151;65038;-80
2021/01/08 05:10:56;;;;;;;58.57;30.63;;;;;;;0.63;82.43;98622.73;119229;1150;65137;-80
2021/01/08 05:13:34;;;;;;;75.27;37.30;;;;;;;0.60;83.06;98625.42;119238;1150;65146;-80
2021/01/08 05:16:02;;;;;;;80.80;37.03;;;;;;;0.52;82.62;98624.81;119022;1150;65201;-80
2021/01/08 05:18:31;;;;;;;97.80;45.13;;;;;;;0.48;82.86;98631.08;119207;1150;65268;-80
2021/01/08 05:21:00;;;;;;;82.93;39.17;;;;;;;0.48;83.21;98628.46;119237;1151;65070;-80
2021/01/08 05:23:27;;;;;;;86.03;40.47;;;;;;;0.47;82.90;98626.73;119178;1150;65111;-80
2021/01/08 05:25:54;;;;;;;71.90;37.85;;;;;;;0.44;82.36;98622.44;119115;1150;65098;-80
2021/01/08 05:28:21;;;;;;;80.60;38.20;;;;;;;0.44;83.28;98629.45;118629;1150;65120;-80
2021/01/08 05:30:47;;;;;;;63.90;35.50;;;;;;;0.43;82.76;98631.22;118362;1151;65297;-80
2021/01/08 05:33:15;;;;;;;56.23;32.83;;;;;;;0.41;82.64;98630.41;119102;1150;65063;-81
2021/01/08 05:35:44;;;;;;;66.93;36.17;;;;;;;0.39;82.70;98645.31;119144;1150;65115;-82
2021/01/08 05:38:11;;;;;;;66.70;39.37;;;;;;;0.41;82.74;98632.17;118729;1150;65120;-80
2021/01/08 05:40:41;;;;;;;64.30;38.90;;;;;;;0.39;82.92;98637.45;118729;1150;65056;-80
2021/01/08 05:43:08;;;;;;;68.77;39.63;;;;;;;0.39;82.53;98631.36;118807;1150;65264;-79
2021/01/08 05:45:35;;;;;;;67.87;39.80;;;;;;;0.40;82.65;98633.09;119054;1151;65129;-81
2021/01/08 05:48:05;;;;;;;62.20;38.30;;;;;;;0.44;83.40;98638.16;119302;1150;65031;-80
2021/01/08 05:50:33;;;;;;;72.60;40.60;;;;;;;0.53;82.61;98634.42;118888;1151;65169;-79
2021/01/08 05:53:09;;;;;;;60.63;38.20;;;;;;;0.59;82.37;98633.36;118719;1150;65041;-80
2021/01/08 05:55:39;;;;;;;63.37;39.47;;;;;;;0.59;83.03;98628.97;119104;1151;65621;-80
2021/01/08 05:58:23;;;;;;;67.80;42.40;;;;;;;0.57;82.83;98633.39;119324;1151;65197;-80
2021/01/08 06:00:57;;;;;;;58.17;36.90;;;;;;;0.57;82.82;98633.39;119318;1150;65140;-80
2021/01/08 06:03:25;;;;;;;63.90;39.43;;;;;;;0.59;82.67;98633.36;118950;1150;65057;-81
2021/01/08 06:05:58;;;;;;;60.10;36.23;;;;;;;0.58;83.52;98636.87;118735;1150;65120;-80
2021/01/08 06:08:33;;;;;;;65.00;40.97;;;;;;;0.58;83.42;98636.87;118475;1151;65573;-80
2021/01/08 06:11:01;;;;;;;67.10;43.03;;;;;;;0.56;82.77;98636.94;119277;1151;65245;-80
2021/01/08 06:13:30;;;;;;;80.03;48.83;;;;;;;0.55;82.68;98626.48;119287;1151;65220;-80
2021/01/08 06:15:57;;;;;;;68.72;42.48;;;;;;;0.58;83.41;98631.63;119253;1150;65102;-80
2021/01/08 06:18:25;;;;;;;64.43;38.17;;;;;;;0.56;82.96;98625.59;119275;1150;65114;-80
2021/01/08 06:20:54;;;;;;;57.30;37.00;;;;;;;0.56;83.03;98631.69;119244;1150;65299;-82
2021/01/08 06:23:40;;;;;;;58.67;36.83;;;;;;;0.56;83.27;98626.45;118915;1150;65038;-80
2021/01/08 06:26:15;;;;;;;59.83;38.00;;;;;;;0.56;83.21;98626.45;118724;1151;65117;-81
2021/01/08 06:28:46;;;;;;;61.07;37.03;;;;;;;0.57;83.44;98629.92;119290;1150;65274;-80
2021/01/08 06:31:22;;;;;;;63.40;37.60;;;;;;;0.53;83.40;98621.31;119308;1150;65126;-80
2021/01/08 06:33:52;;;;;;;62.80;39.37;;;;;;;0.51;83.26;98630.13;119301;1150;65557;-82
2021/01/08 06:36:45;;;;;;;62.70;38.43;;;;;;;0.52;82.67;98626.59;119039;1151;65286;-80
2021/01/08 06:39:21;;;;;;;64.97;40.93;;;;;;;0.53;83.27;98633.56;119061;1151;65168;-80
2021/01/08 06:41:52;;;;;;;88.50;48.37;;;;;;;0.51;82.85;98636.22;118761;1151;65124;-80
2021/01/08 06:44:25;;;;;;;88.07;48.03;;;;;;;0.50;82.42;98647.62;118765;1150;65124;-80
2021/01/08 06:46:57;;;;;;;105.33;50.57;;;;;;;0.49;82.83;98643.27;118712;1150;65577;-82
2021/01/08 06:49:24;;;;;;;98.10;50.30;;;;;;;0.49;82.88;98637.17;118859;1150;65129;-81
2021/01/08 06:51:51;;;;;;;91.33;47.67;;;;;;;0.49;82.45;98639.80;119133;1150;65095;-79
2021/01/08 06:54:18;;;;;;;90.75;46.65;;;;;;;0.51;82.09;98637.99;119025;1151;65123;-80
2021/01/08 06:56:46;;;;;;;55.30;32.80;;;;;;;0.56;82.16;98641.33;119161;1151;65132;-81
2021/01/08 06:59:16;;;;;;;44.50;28.65;;;;;;;0.56;82.19;98634.31;118701;1151;65226;-80
2021/01/08 07:01:45;;;;;;;40.40;24.47;;;;;;;0.57;82.31;98643.88;118976;1151;65146;-80
2021/01/08 07:04:12;;;;;;;44.33;25.90;;;;;;;0.60;81.88;98642.92;119094;1151;65143;-81
2021/01/08 07:06:40;;;;;;;35.93;21.40;;;;;;;0.63;81.65;98653.31;119076;1151;65066;-79
2021/01/08 07:09:07;;;;;;;31.57;19.13;;;;;;;0.64;82.17;98637.54;118762;1151;65146;-80
2021/01/08 07:11:35;;;;;;;42.63;24.70;;;;;;;0.67;81.42;98639.20;118482;1151;65165;-80
2021/01/08 07:14:15;;;;;;;77.97;38.33;;;;;;;0.71;81.80;98639.95;118547;1151;66288;-80
2021/01/08 07:16:46;;;;;;;78.65;38.35;;;;;;;0.73;81.23;98643.39;119145;1151;65104;-80
2021/01/08 07:19:15;;;;;;;70.93;36.50;;;;;;;0.76;81.25;98649.38;118693;1150;65162;-79
2021/01/08 07:21:51;;;;;;;78.23;37.17;;;;;;;0.79;81.61;98649.30;118504;1151;65097;-80
2021/01/08 07:24:23;;;;;;;75.23;36.20;;;;;;;0.83;80.90;98656.14;119048;1150;65245;-79
2021/01/08 07:26:51;;;;;;;89.77;43.50;;;;;;;0.86;81.49;98645.55;119408;1150;65108;-80
2021/01/08 07:29:27;;;;;;;77.77;38.67;;;;;;;0.88;81.25;98653.38;119013;1151;65228;-80
2021/01/08 07:31:57;;;;;;;78.13;40.17;;;;;;;0.91;80.81;98653.27;118769;1150;65148;-80
2021/01/08 07:34:33;;;;;;;;;;;;;;;0.91;80.73;98655.05;118731;1150;65123;-80
2021/01/08 07:37:01;;;;;;;61.65;32.40;;;;;;;0.93;80.62;98653.23;118706;1151;65177;-81
2021/01/08 07:39:41;;;;;;;59.00;33.17;;;;;;;0.94;80.63;98658.41;118727;1150;65132;-82
2021/01/08 07:42:34;;;;;;;60.90;32.40;;;;;;;0.96;80.03;98659.23;118805;1150;65124;-81
2021/01/08 07:45:01;;;;;;;59.75;30.85;;;;;;;0.99;80.72;98660.89;118814;1150;65147;-81
2021/01/08 07:47:29;;;;;;;55.30;30.90;;;;;;;1.03;79.91;98663.37;118760;1151;65213;-81
2021/01/08 07:50:12;;;;;;;51.10;29.55;;;;;;;1.04;80.20;98662.45;118865;1150;65246;-79
2021/01/08 07:52:45;;;;;;;49.60;28.83;;;;;;;1.07;79.81;98662.34;119097;1151;65146;-80
2021/01/08 07:55:45;;;;;;;50.60;27.90;;;;;;;1.10;80.25;98666.63;118715;1150;65127;-80
2021/01/08 07:58:12;;;;;;;47.63;27.13;;;;;;;1.16;80.13;98670.80;118668;1151;65124;-79
2021/01/08 08:00:41;;;;;;;49.23;27.50;;;;;;;1.20;79.92;98677.68;118467;1150;65159;-79
2021/01/08 08:03:11;;;;;;;44.90;25.00;;;;;;;1.22;79.72;98671.47;118855;1150;65185;-79
2021/01/08 08:05:37;;;;;;;39.83;23.67;;;;;;;1.25;79.36;98678.38;118685;1150;65047;-79
2021/01/08 08:08:05;;;;;;;44.55;25.00;;;;;;;1.28;79.53;98681.75;119028;1150;65573;-81
2021/01/08 08:10:31;;;;;;;45.27;25.20;;;;;;;1.31;78.86;98683.41;119094;1151;65128;-79
2021/01/08 08:12:58;;;;;;;47.67;27.57;;;;;;;1.34;79.50;98680.67;119242;1151;65117;-79
2021/01/08 08:15:24;;;;;;;48.15;28.05;;;;;;;1.39;79.00;98684.00;118933;1150;65195;-79
2021/01/08 08:17:51;;;;;;;48.63;25.10;;;;;;;1.45;79.16;98688.17;119014;1151;65124;-79
2021/01/08 08:20:19;;;;;;;48.50;23.73;;;;;;;1.50;78.71;98684.50;119020;1151;65066;-80
2021/01/08 08:22:46;;;;;;;52.20;24.30;;;;;;;1.56;78.33;98680.80;119232;1151;65129;-80
2021/01/08 08:25:25;;;;;;;38.57;22.10;;;;;;;1.58;78.31;98673.73;119242;1150;65105;-80
2021/01/08 08:27:57;;;;;;;45.53;25.60;;;;;;;1.63;78.50;98679.64;119242;1150;65197;-79
2021/01/08 08:30:24;;;;;;;45.93;26.93;;;;;;;1.68;77.93;98688.22;119252;1150;65242;-79
2021/01/08 08:32:52;;;;;;;43.00;26.60;;;;;;;1.72;77.99;98681.95;119009;1151;65313;-79
2021/01/08 08:35:19;;;;;;;42.43;24.27;;;;;;;1.77;77.71;98689.68;118434;1151;65210;-79
2021/01/08 08:37:49;;;;;;;38.60;22.10;;;;;;;1.80;77.44;98692.19;119164;1150;65165;-80
2021/01/08 08:40:17;;;;;;;39.45;22.05;;;;;;;1.85;77.43;98692.88;119208;1150;65159;-78
2021/01/08 08:42:49;;;;;;;35.50;23.57;;;;;;;1.90;77.41;98692.72;119258;1150;65121;-78
2021/01/08 08:45:20;;;;;;;39.93;22.47;;;;;;;1.95;77.14;98696.89;119094;1151;65149;-78
2021/01/08 08:47:48;;;;;;;48.70;24.27;;;;;;;1.98;76.93;98701.17;119266;1150;65095;-80
2021/01/08 08:50:17;;;;;;;41.27;24.40;;;;;;;2.04;76.99;98694.83;119269;1150;65561;-79
2021/01/08 08:52:46;;;;;;;35.90;21.23;;;;;;;2.06;76.62;98693.86;119211;1150;65204;-79
2021/01/08 08:55:26;;;;;;;41.00;22.10;;;;;;;2.10;76.70;98703.33;119246;1151;65056;-79
2021/01/08 08:58:04;;;;;;;54.17;26.10;;;;;;;2.15;76.21;98701.39;119268;1151;65129;-79
2021/01/08 09:00:32;;;;;;;42.77;22.20;;;;;;;2.19;75.56;98704.78;119299;1151;65150;-79
2021/01/08 09:02:59;;;;;;;40.00;24.07;;;;;;;2.20;76.38;98704.70;119227;1150;65134;-80
2021/01/08 09:05:33;;;;;;;35.30;22.43;;;;;;;2.28;76.53;98704.41;119212;1150;65178;-79
2021/01/08 09:08:09;;;;;;;35.10;23.00;;;;;;;2.35;76.22;98702.42;119265;1150;65178;-80
2021/01/08 09:10:41;;;;;;;37.23;22.60;;;;;;;2.40;75.60;98703.11;119277;1150;65102;-81
2021/01/08 09:13:18;;;;;;;37.70;22.13;;;;;;;2.44;75.82;98709.95;119325;1150;65124;-79
2021/01/08 09:15:47;;;;;;;37.60;24.50;;;;;;;2.47;75.51;98706.34;119218;1150;65105;-81
2021/01/08 09:18:46;;;;;;;39.60;23.70;;;;;;;2.48;75.72;98701.03;119226;1150;65133;-82
2021/01/08 09:21:20;;;;;;;36.93;23.20;;;;;;;2.49;75.36;98701.88;119245;1150;65219;-79
2021/01/08 09:23:49;;;;;;;37.10;21.30;;;;;;;2.46;75.10;98707.27;118935;1150;65120;-79
2021/01/08 09:26:17;;;;;;;32.57;21.00;;;;;;;2.44;74.90;98706.47;119253;1150;65097;-79
2021/01/08 09:28:46;;;;;;;36.53;21.67;;;;;;;2.38;75.09;98699.67;119242;1150;65089;-80
2021/01/08 09:31:14;;;;;;;33.87;19.83;;;;;;;2.35;74.49;98703.28;119259;1150;65121;-79
2021/01/08 09:33:41;;;;;;;33.70;21.23;;;;;;;2.35;74.74;98703.28;119124;1151;65120;-79
2021/01/08 09:36:07;;;;;;;30.93;20.90;;;;;;;2.36;74.66;98698.86;119008;1151;65149;-79
2021/01/08 09:38:36;;;;;;;36.33;22.30;;;;;;;2.34;74.51;98695.43;119234;1151;65201;-79
2021/01/08 09:41:02;;;;;;;29.23;17.70;;;;;;;2.32;74.59;98699.92;118919;1150;65140;-80
2021/01/08 09:43:29;;;;;;;24.13;15.83;;;;;;;2.27;73.94;98697.45;118664;1150;65115;-78
2021/01/08 09:46:07;;;;;;;25.23;14.80;;;;;;;2.23;73.75;98697.63;118672;1150;65133;-79
2021/01/08 09:48:34;;;;;;;20.55;14.25;;;;;;;2.19;72.79;98702.16;119141;1150;65117;-81
2021/01/08 09:51:03;;;;;;;19.80;13.87;;;;;;;2.14;73.23;98693.58;119292;1150;65166;-79
2021/01/08 09:53:29;;;;;;;25.97;15.13;;;;;;;2.09;72.85;98700.78;119285;1151;65137;-79
2021/01/08 09:56:15;;;;;;;22.03;14.43;;;;;;;2.06;72.65;98700.90;119241;1150;65146;-80
2021/01/08 09:58:43;;;;;;;27.80;16.70;;;;;;;1.97;72.84;98702.07;119217;1150;65228;-78
2021/01/08 10:01:13;;;;;;;26.53;15.93;;;;;;;1.98;72.94;98696.77;119256;1149;65226;-79
2021/01/08 10:03:50;;;;;;;23.38;14.38;;;;;;;1.98;72.67;98691.52;119242;1150;65555;-79
2021/01/08 10:06:18;;;;;;;20.37;14.00;;;;;;;2.01;72.49;98690.55;119081;1150;65102;-79
2021/01/08 10:08:44;;;;;;;24.60;14.37;;;;;;;2.09;72.87;98692.89;118822;1151;65098;-79
2021/01/08 10:11:26;;;;;;;22.45;13.15;;;;;;;2.19;72.56;98689.86;118955;1150;65220;-79
2021/01/08 10:14:04;;;;;;;21.15;12.45;;;;;;;2.30;72.06;98697.33;119161;1150;65114;-81
2021/01/08 10:16:40;;;;;;;19.07;11.53;;;;;;;2.38;71.62;98683.89;118947;1150;65152;-79
2021/01/08 10:19:10;;;;;;;19.17;12.97;;;;;;;2.45;71.62;98687.12;119206;1150;65207;-79
2021/01/08 10:21:43;;;;;;;19.77;13.10;;;;;;;2.56;71.82;98687.59;119234;1151;65159;-81
2021/01/08 10:24:09;;;;;;;17.37;12.37;;;;;;;2.67;71.63;98687.16;118891;1151;65169;-79
2021/01/08 10:26:36;;;;;;;17.53;12.23;;;;;;;2.73;71.50;98679.86;119160;1150;65123;-79
2021/01/08 10:29:04;;;;;;;18.57;12.07;;;;;;;2.82;71.50;98671.61;119292;1151;65203;-78
2021/01/08 10:31:31;;;;;;;25.60;17.13;;;;;;;2.92;71.34;98676.48;119126;1151;65172;-80
2021/01/08 10:34:01;;;;;;;18.00;11.80;;;;;;;2.98;70.79;98670.98;119017;1150;65127;-78
2021/01/08 10:36:28;;;;;;;22.30;14.63;;;;;;;3.04;70.27;98674.20;119049;1149;65123;-80
2021/01/08 10:38:54;;;;;;;22.53;15.77;;;;;;;3.11;70.23;98676.57;118795;1150;65573;-79
2021/01/08 10:41:21;;;;;;;18.90;12.93;;;;;;;3.15;70.23;98665.00;119037;1150;65150;-81
2021/01/08 10:43:50;;;;;;;15.53;11.20;;;;;;;3.20;69.71;98671.78;119019;1151;65121;-79
2021/01/08 10:46:19;;;;;;;13.50;10.07;;;;;;;3.25;69.89;98663.70;119202;1151;65459;-79
2021/01/08 10:48:46;;;;;;;13.55;10.20;;;;;;;3.32;69.64;98662.52;118927;1150;65577;-80
2021/01/08 10:51:12;;;;;;;13.80;8.57;;;;;;;3.37;69.21;98657.03;119136;1150;65102;-81
2021/01/08 10:53:39;;;;;;;14.40;9.37;;;;;;;3.40;68.80;98655.14;118661;1150;65120;-80
2021/01/08 10:56:05;;;;;;;15.25;9.65;;;;;;;3.40;68.83;98649.03;118626;1151;65082;-79
2021/01/08 10:58:33;;;;;;;14.83;9.50;;;;;;;3.39;68.89;98653.41;118847;1151;65114;-79
2021/01/08 11:01:00;;;;;;;13.23;8.87;;;;;;;3.41;69.31;98655.99;118423;1150;65121;-79
2021/01/08 11:03:27;;;;;;;12.83;8.30;;;;;;;3.37;68.17;98657.03;118401;1151;65197;-79
2021/01/08 11:05:53;;;;;;;13.45;8.25;;;;;;;3.28;68.38;98655.66;118534;1150;65121;-79
2021/01/08 11:08:19;;;;;;;11.73;9.20;;;;;;;3.18;68.64;98655.19;118875;1150;65200;-79
2021/01/08 11:10:46;;;;;;;13.48;9.00;;;;;;;3.12;68.85;98660.72;118888;1150;65101;-79
2021/01/08 11:13:12;;;;;;;11.87;8.33;;;;;;;3.03;68.43;98663.75;119173;1150;65123;-79
2021/01/08 11:15:39;;;;;;;15.07;9.80;;;;;;;3.02;68.34;98659.39;119032;1150;65101;-80
2021/01/08 11:18:06;;;;;;;14.03;9.00;;;;;;;3.10;68.71;98657.30;118937;1151;66381;-79
2021/01/08 11:20:32;;;;;;;14.87;10.83;;;;;;;3.18;68.69;98651.70;119222;1149;65117;-79
2021/01/08 11:23:03;;;;;;;18.93;12.20;;;;;;;3.27;68.94;98648.70;119183;1151;65197;-80
2021/01/08 11:25:29;;;;;;;12.67;9.07;;;;;;;3.40;67.58;98641.12;118959;1150;65129;-79